Aviation Digital Data Service (ADDS)

Output produced by METARs form (2005 UTC 25 July 2016)
found at http://www.aviationweather.gov/adds/metars/
 
KMIV 251954Z AUTO VRB06KT 9SM CLR 34/24 A2986 RMK AO2 SLP109 T03440244
KMIV 251729Z 2518/2618 23007KT 6SM HZ BKN150 
     FM252200 25009G20KT P6SM VCTS SCT040CB BKN150 
     TEMPO 2523/2601 32015G30KT 3SM TSRA SCT020 OVC040CB 
     FM260200 22004KT P6SM BKN100 
     FM261500 28007KT P6SM SCT050